PWSweather.com
Personal Weather Stations
Station Observations
IVENETOL9
Brugine, BrugineIT 35020

BrugineBrugineIT 35020

Lat: 45.2975, Lon: 11.9962777

Elevation: 19

Station Type: Davis Vantage Pro2 Plus

http://www.meteobrugine.it/

Latest ConditionsUpdated 2:15:55 PM GMT+01:01 Thursday, Jul 31, 2014
Currently Today's Max Today's Min Today's Average
Temperature 74.4°F23.6°C 74.6°F23.7°C 65.8°F18.8°C 69.6°F20.9°C
Dew Point 71.3°F21.8°C 71.3°F21.8°C 65.8°F18.8°C 67.8°F19.9°C
Winds Calm Calm 0.9 mph NE1.4 kmh NE - 0.0 mph 0.0 kmh
Wind Gusts -- 3.0 mph4.8 kmh - -
Humidity 90% 100% 82% 94%
Pressure 29.81 in1009.5 mb 29.82 in1009.8 mb 29.72 in1006.4 mb -
Precipitation - 0.02 in0.5 mm - -
Hour Temp Dew Point Humidity Winds Wind Gusts Pressure Precip Precip Rate Daily Precip Total
02:15 PM 74.4°F23.6°C 71.3°F21.8°C 90% Calm Calm -- 29.81 in1009.5 mb 0.00 in0.0 mm 0.00 in/hr0.0 mm/hr 0.02 in0.5 mm
02:00 PM 74.1°F23.4°C 70.9°F21.6°C 90% Calm Calm 1.0 mph1.6 kmh 29.82 in1009.8 mb 0.00 in0.0 mm 0.00 in/hr0.0 mm/hr 0.02 in0.5 mm
01:45 PM 73.6°F23.1°C 70.2°F21.2°C 89% Calm Calm -- 29.81 in1009.5 mb 0.00 in0.0 mm 0.00 in/hr0.0 mm/hr 0.02 in0.5 mm
01:30 PM 73.6°F23.1°C 70.8°F21.6°C 91% Calm Calm -- 29.81 in1009.5 mb 0.00 in0.0 mm 0.00 in/hr0.0 mm/hr 0.02 in0.5 mm
01:15 PM 73.6°F23.1°C 70.5°F21.4°C 90% Calm Calm -- 29.81 in1009.5 mb 0.01 in0.3 mm 0.04 in/hr1.0 mm/hr 0.02 in0.5 mm
01:00 PM 73.6°F23.1°C 69.8°F21.0°C 88% Calm Calm -- 29.81 in1009.5 mb 0.00 in0.0 mm 0.00 in/hr0.0 mm/hr 0.01 in0.3 mm
12:45 PM 73.9°F23.3°C 70.5°F21.4°C 89% Calm Calm -- 29.81 in1009.5 mb 0.00 in0.0 mm 0.00 in/hr0.0 mm/hr 0.01 in0.3 mm
12:30 PM 74.0°F23.3°C 69.5°F20.8°C 86% Calm Calm -- 29.81 in1009.5 mb 0.00 in0.0 mm 0.00 in/hr0.0 mm/hr 0.01 in0.3 mm
12:15 PM 74.6°F23.7°C 70.1°F21.2°C 86% Calm Calm -- 29.82 in1009.8 mb 0.00 in0.0 mm 0.00 in/hr0.0 mm/hr 0.01 in0.3 mm
12:00 PM 74.6°F23.7°C 69.8°F21.0°C 85% Calm Calm -- 29.82 in1009.8 mb 0.00 in0.0 mm 0.00 in/hr0.0 mm/hr 0.01 in0.3 mm
11:45 AM 74.6°F23.7°C 68.7°F20.4°C 82% Calm Calm -- 29.82 in1009.8 mb 0.00 in0.0 mm 0.00 in/hr0.0 mm/hr 0.01 in0.3 mm
11:30 AM 74.5°F23.6°C 69.7°F20.9°C 85% Calm Calm -- 29.82 in1009.8 mb 0.00 in0.0 mm 0.00 in/hr0.0 mm/hr 0.01 in0.3 mm
11:15 AM 74.2°F23.4°C 69.0°F20.6°C 84% Calm Calm -- 29.82 in1009.8 mb 0.00 in0.0 mm 0.00 in/hr0.0 mm/hr 0.01 in0.3 mm
11:00 AM 74.2°F23.4°C 69.1°F20.6°C 84% Calm Calm -- 29.82 in1009.8 mb 0.00 in0.0 mm 0.00 in/hr0.0 mm/hr 0.01 in0.3 mm
10:45 AM 74.5°F23.6°C 69.3°F20.7°C 84% 0.5 mph NE0.8 kmh NE 3.0 mph4.8 kmh 29.82 in1009.8 mb 0.00 in0.0 mm 0.00 in/hr0.0 mm/hr 0.01 in0.3 mm
10:31 AM 74.4°F23.6°C 68.9°F20.5°C 83% 0.1 mph NE0.2 kmh NE -- 29.82 in1009.8 mb 0.00 in0.0 mm 0.00 in/hr0.0 mm/hr 0.01 in0.3 mm
10:15 AM 73.7°F23.2°C 68.5°F20.3°C 84% 0.9 mph NE1.4 kmh NE 1.0 mph1.6 kmh 29.81 in1009.5 mb 0.00 in0.0 mm 0.00 in/hr0.0 mm/hr 0.01 in0.3 mm
10:00 AM 73.5°F23.1°C 68.7°F20.4°C 85% Calm Calm 2.0 mph3.2 kmh 29.81 in1009.5 mb 0.00 in0.0 mm 0.00 in/hr0.0 mm/hr 0.01 in0.3 mm
09:46 AM 73.7°F23.2°C 69.6°F20.9°C 87% Calm Calm -- 29.80 in1009.1 mb 0.00 in0.0 mm 0.00 in/hr0.0 mm/hr 0.01 in0.3 mm
09:30 AM 73.0°F22.8°C 69.6°F20.9°C 89% 0.1 mph NE0.2 kmh NE 1.0 mph1.6 kmh 29.80 in1009.1 mb 0.00 in0.0 mm 0.00 in/hr0.0 mm/hr 0.01 in0.3 mm
09:15 AM 72.6°F22.6°C 69.1°F20.6°C 89% Calm Calm -- 29.80 in1009.1 mb 0.00 in0.0 mm 0.00 in/hr0.0 mm/hr 0.01 in0.3 mm
09:00 AM 71.3°F21.8°C 68.6°F20.3°C 91% 0.2 mph NE0.3 kmh NE 2.0 mph3.2 kmh 29.80 in1009.1 mb 0.00 in0.0 mm 0.00 in/hr0.0 mm/hr 0.01 in0.3 mm
08:45 AM 70.0°F21.1°C 67.8°F19.9°C 93% Calm Calm 1.0 mph1.6 kmh 29.80 in1009.1 mb 0.00 in0.0 mm 0.00 in/hr0.0 mm/hr 0.01 in0.3 mm
08:30 AM 69.5°F20.8°C 68.0°F20.0°C 95% Calm Calm -- 29.79 in1008.8 mb 0.00 in0.0 mm 0.00 in/hr0.0 mm/hr 0.01 in0.3 mm
08:15 AM 68.5°F20.3°C 67.3°F19.6°C 96% Calm Calm 1.0 mph1.6 kmh 29.79 in1008.8 mb 0.00 in0.0 mm 0.00 in/hr0.0 mm/hr 0.01 in0.3 mm
08:00 AM 67.8°F19.9°C 67.0°F19.4°C 97% Calm Calm 1.0 mph1.6 kmh 29.79 in1008.8 mb 0.00 in0.0 mm 0.00 in/hr0.0 mm/hr 0.01 in0.3 mm
07:45 AM 67.5°F19.7°C 66.9°F19.4°C 98% Calm Calm -- 29.78 in1008.5 mb 0.00 in0.0 mm 0.00 in/hr0.0 mm/hr 0.01 in0.3 mm
07:30 AM 67.1°F19.5°C 66.5°F19.2°C 98% Calm Calm -- 29.79 in1008.8 mb 0.00 in0.0 mm 0.00 in/hr0.0 mm/hr 0.01 in0.3 mm
07:15 AM 66.7°F19.3°C 66.4°F19.1°C 99% Calm Calm -- 29.79 in1008.8 mb 0.00 in0.0 mm 0.00 in/hr0.0 mm/hr 0.01 in0.3 mm
07:01 AM 66.5°F19.2°C 66.2°F19.0°C 99% Calm Calm -- 29.77 in1008.1 mb 0.00 in0.0 mm 0.00 in/hr0.0 mm/hr 0.01 in0.3 mm
06:45 AM 66.4°F19.1°C 66.4°F19.1°C 100% Calm Calm -- 29.77 in1008.1 mb 0.00 in0.0 mm 0.00 in/hr0.0 mm/hr 0.01 in0.3 mm
06:30 AM 66.2°F19.0°C 66.2°F19.0°C 100% Calm Calm -- 29.76 in1007.8 mb 0.00 in0.0 mm 0.00 in/hr0.0 mm/hr 0.01 in0.3 mm
06:15 AM 65.9°F18.8°C 65.9°F18.8°C 100% Calm Calm -- 29.77 in1008.1 mb 0.00 in0.0 mm 0.00 in/hr0.0 mm/hr 0.01 in0.3 mm
06:00 AM 66.0°F18.9°C 66.0°F18.9°C 100% Calm Calm -- 29.76 in1007.8 mb 0.00 in0.0 mm 0.00 in/hr0.0 mm/hr 0.01 in0.3 mm
05:45 AM 65.9°F18.8°C 65.9°F18.8°C 100% Calm Calm -- 29.76 in1007.8 mb 0.00 in0.0 mm 0.00 in/hr0.0 mm/hr 0.01 in0.3 mm
05:30 AM 65.8°F18.8°C 65.8°F18.8°C 100% Calm Calm 1.0 mph1.6 kmh 29.76 in1007.8 mb 0.00 in0.0 mm 0.00 in/hr0.0 mm/hr 0.01 in0.3 mm
05:15 AM 65.8°F18.8°C 65.8°F18.8°C 100% Calm Calm -- 29.75 in1007.5 mb 0.00 in0.0 mm 0.00 in/hr0.0 mm/hr 0.01 in0.3 mm
05:00 AM 66.0°F18.9°C 66.0°F18.9°C 100% Calm Calm -- 29.75 in1007.5 mb 0.00 in0.0 mm 0.00 in/hr0.0 mm/hr 0.01 in0.3 mm
04:45 AM 66.1°F18.9°C 66.1°F18.9°C 100% Calm Calm 1.0 mph1.6 kmh 29.75 in1007.5 mb 0.00 in0.0 mm 0.00 in/hr0.0 mm/hr 0.01 in0.3 mm
04:30 AM 66.3°F19.1°C 66.3°F19.1°C 100% Calm Calm -- 29.75 in1007.5 mb 0.00 in0.0 mm 0.00 in/hr0.0 mm/hr 0.01 in0.3 mm
04:15 AM 66.5°F19.2°C 66.5°F19.2°C 100% Calm Calm -- 29.74 in1007.1 mb 0.00 in0.0 mm 0.00 in/hr0.0 mm/hr 0.01 in0.3 mm
04:00 AM 66.7°F19.3°C 66.7°F19.3°C 100% Calm Calm -- 29.74 in1007.1 mb 0.00 in0.0 mm 0.00 in/hr0.0 mm/hr 0.01 in0.3 mm
03:45 AM 66.8°F19.3°C 66.8°F19.3°C 100% Calm Calm -- 29.74 in1007.1 mb 0.00 in0.0 mm 0.00 in/hr0.0 mm/hr 0.01 in0.3 mm
03:30 AM 66.9°F19.4°C 66.9°F19.4°C 100% Calm Calm -- 29.74 in1007.1 mb 0.00 in0.0 mm 0.00 in/hr0.0 mm/hr 0.01 in0.3 mm
03:15 AM 67.0°F19.4°C 67.0°F19.4°C 100% Calm Calm -- 29.73 in1006.8 mb 0.00 in0.0 mm 0.00 in/hr0.0 mm/hr 0.01 in0.3 mm
03:00 AM 67.1°F19.5°C 66.8°F19.3°C 99% Calm Calm -- 29.73 in1006.8 mb 0.00 in0.0 mm 0.00 in/hr0.0 mm/hr 0.01 in0.3 mm
02:45 AM 67.2°F19.6°C 66.9°F19.4°C 99% Calm Calm -- 29.73 in1006.8 mb 0.01 in0.3 mm 0.04 in/hr1.0 mm/hr 0.01 in0.3 mm
02:30 AM 67.2°F19.6°C 66.9°F19.4°C 99% Calm Calm -- 29.73 in1006.8 mb 0.01 in0.3 mm 0.04 in/hr1.0 mm/hr 0.01 in0.3 mm
02:15 AM 67.3°F19.6°C 67.0°F19.4°C 99% Calm Calm -- 29.73 in1006.8 mb 0.00 in0.0 mm 0.00 in/hr0.0 mm/hr 0.00 in0.0 mm
02:00 AM 67.2°F19.6°C 66.9°F19.4°C 99% Calm Calm -- 29.73 in1006.8 mb 0.00 in0.0 mm 0.00 in/hr0.0 mm/hr 0.00 in0.0 mm
01:45 AM 67.2°F19.6°C 66.9°F19.4°C 99% Calm Calm -- 29.73 in1006.8 mb 0.00 in0.0 mm 0.00 in/hr0.0 mm/hr 0.00 in0.0 mm
01:30 AM 67.2°F19.6°C 66.9°F19.4°C 99% Calm Calm -- 29.73 in1006.8 mb 0.00 in0.0 mm 0.00 in/hr0.0 mm/hr 0.00 in0.0 mm
01:15 AM 67.2°F19.6°C 66.9°F19.4°C 99% Calm Calm -- 29.73 in1006.8 mb 0.00 in0.0 mm 0.00 in/hr0.0 mm/hr 0.00 in0.0 mm
01:00 AM 67.1°F19.5°C 66.8°F19.3°C 99% Calm Calm -- 29.73 in1006.8 mb 0.00 in0.0 mm 0.00 in/hr0.0 mm/hr 0.00 in0.0 mm
12:45 AM 67.1°F19.5°C 66.8°F19.3°C 99% Calm Calm -- 29.73 in1006.8 mb 0.00 in0.0 mm 0.00 in/hr0.0 mm/hr 0.00 in0.0 mm
12:30 AM 67.2°F19.6°C 66.9°F19.4°C 99% Calm Calm -- 29.73 in1006.8 mb 0.00 in0.0 mm 0.00 in/hr0.0 mm/hr 0.00 in0.0 mm
12:15 AM 67.2°F19.6°C 66.9°F19.4°C 99% Calm Calm -- 29.72 in1006.4 mb 0.00 in0.0 mm 0.00 in/hr0.0 mm/hr 0.00 in0.0 mm
12:00 AM 67.6°F19.8°C 67.3°F19.6°C 99% Calm Calm -- 29.73 in1006.8 mb 0.00 in0.0 mm 0.00 in/hr0.0 mm/hr 0.00 in0.0 mm